Time;durP1;ratioP1;P1;durP2;ratioP2;P2;SDS_P1;SDS_P2;PMS_P1;PMS_P2;Temp;Humidity;BMP_temperature;BMP_pressure;BME280_temperature;BME280_humidity;BME280_pressure;Samples;Min_cycle;Max_cycle;Signal;HPM_P1;HPM_P2
2023/03/01 00:01:02;;;;;;;;;;;;;;;14.87;59.17;103406.59;2069517;28;20330;-71
2023/03/01 00:02:04;;;;;;;;;;;;;;;14.88;59.13;103403.56;2063317;28;20567;-72
2023/03/01 00:03:07;;;;;;;;;;;;;;;14.88;59.02;103405.47;2055417;28;20373;-72
2023/03/01 00:04:09;;;;;;;;;;;;;;;14.87;59.17;103399.22;2055242;28;20309;-73
2023/03/01 00:05:12;;;;;;;;;;;;;;;14.87;59.02;103399.22;2068753;28;19926;-72
2023/03/01 00:06:14;;;;;;;;;;;;;;;14.88;59.06;103405.47;2070976;28;19979;-72
2023/03/01 00:07:17;;;;;;;;;;;;;;;14.86;59.25;103403.06;2069488;28;20419;-72
2023/03/01 00:08:18;;;;;;;;;;;;;;;14.85;59.23;103401.47;2063083;28;19930;-72
2023/03/01 00:09:21;;;;;;;;;;;;;;;14.86;59.33;103402.25;2061155;28;20146;-72
2023/03/01 00:10:23;;;;;;;;;;;;;;;14.85;58.95;103393.31;2064542;28;19934;-72
2023/03/01 00:11:29;;;;;;;;;;;;;;;14.86;59.42;103396.81;2064424;28;20440;-72
2023/03/01 00:12:31;;;;;;;;;;;;;;;14.86;59.25;103396.81;2068515;28;19952;-73
2023/03/01 00:13:34;;;;;;;;;;;;;;;14.85;59.18;103396.03;2069208;28;19992;-72
2023/03/01 00:14:36;;;;;;;;;;;;;;;14.86;59.09;103396.81;2068698;28;19929;-72
2023/03/01 00:15:39;;;;;;;;;;;;;;;14.86;59.12;103402.25;2069516;28;19929;-72
2023/03/01 00:16:43;;;;;;;;;;;;;;;14.84;59.20;103402.56;2070051;28;19934;-72
2023/03/01 00:17:45;;;;;;;;;;;;;;;14.84;59.03;103388.94;2070744;28;19933;-72
2023/03/01 00:18:47;;;;;;;;;;;;;;;14.84;59.16;103393.59;2068482;28;19937;-72
2023/03/01 00:19:50;;;;;;;;;;;;;;;14.85;59.07;103392.47;2066748;28;19933;-72
2023/03/01 00:20:52;;;;;;;;;;;;;;;14.84;58.83;103393.59;2069816;28;19930;-72
2023/03/01 00:21:54;;;;;;;;;;;;;;;14.83;58.82;103387.34;2066710;28;19936;-73
2023/03/01 00:22:56;;;;;;;;;;;;;;;14.83;58.94;103386.53;2060356;28;20402;-73
2023/03/01 00:23:59;;;;;;;;;;;;;;;14.84;58.93;103388.16;2052064;28;20429;-73
2023/03/01 00:25:00;;;;;;;;;;;;;;;14.83;58.91;103394.69;2055758;28;19969;-73
2023/03/01 00:26:07;;;;;;;;;;;;;;;14.82;59.16;103391.19;2053050;28;20947;-73
2023/03/01 00:27:09;;;;;;;;;;;;;;;14.84;58.88;103396.31;2051790;28;19934;-72
2023/03/01 00:28:11;;;;;;;;;;;;;;;14.82;59.17;103393.91;2049191;28;19933;-72
2023/03/01 00:29:14;;;;;;;;;;;;;;;14.83;58.99;103394.69;2056268;28;19926;-72
2023/03/01 00:30:17;;;;;;;;;;;;;;;14.81;59.12;103392.28;2065640;28;19979;-71
2023/03/01 00:31:20;;;;;;;;;;;;;;;14.82;58.82;103393.09;2063705;28;19933;-72
2023/03/01 00:32:24;;;;;;;;;;;;;;;14.82;59.02;103393.09;2059930;28;19990;-72
2023/03/01 00:33:26;;;;;;;;;;;;;;;14.81;58.66;103383.31;2070557;28;19960;-71
2023/03/01 00:34:29;;;;;;;;;;;;;;;14.82;58.88;103393.09;2069066;28;19979;-71
2023/03/01 00:35:31;;;;;;;;;;;;;;;14.80;58.85;103382.53;2068324;28;20387;-72
2023/03/01 00:36:35;;;;;;;;;;;;;;;14.81;59.09;103383.31;2070506;28;19925;-72
2023/03/01 00:37:37;;;;;;;;;;;;;;;14.81;58.86;103383.31;2067804;28;19929;-72
2023/03/01 00:38:41;;;;;;;;;;;;;;;14.80;58.87;103396.13;2065505;28;19926;-72
2023/03/01 00:39:42;;;;;;;;;;;;;;;14.81;58.69;103386.03;2066439;28;20366;-72
2023/03/01 00:40:45;;;;;;;;;;;;;;;14.80;58.93;103390.69;2071274;28;19929;-72
2023/03/01 00:41:47;;;;;;;;;;;;;;;14.81;58.81;103394.19;2059113;28;20432;-72
2023/03/01 00:42:50;;;;;;;;;;;;;;;14.80;58.80;103398.84;2054177;28;20003;-72
2023/03/01 00:43:52;;;;;;;;;;;;;;;14.80;58.60;103392.59;2064910;28;19930;-73
2023/03/01 00:44:54;;;;;;;;;;;;;;;14.79;58.93;103399.94;2059578;28;19930;-72
2023/03/01 00:46:00;;;;;;;;;;;;;;;14.79;58.69;103401.88;2060090;28;20324;-72
2023/03/01 00:47:03;;;;;;;;;;;;;;;14.79;58.54;103401.88;2059494;28;20302;-72
2023/03/01 00:48:07;;;;;;;;;;;;;;;14.79;58.84;103399.94;2063394;28;19999;-72
2023/03/01 00:49:09;;;;;;;;;;;;;;;14.80;58.61;103398.03;2072105;28;20297;-73
2023/03/01 00:50:11;;;;;;;;;;;;;;;14.78;58.64;103389.38;2069321;28;19929;-72
2023/03/01 00:51:15;;;;;;;;;;;;;;;14.79;58.70;103393.72;2075586;28;19937;-72
2023/03/01 00:52:17;;;;;;;;;;;;;;;14.78;58.63;103395.63;2077184;28;19929;-72
2023/03/01 00:53:19;;;;;;;;;;;;;;;14.77;58.76;103394.03;2072636;28;19937;-72
2023/03/01 00:54:21;;;;;;;;;;;;;;;14.77;58.61;103387.78;2054267;28;19931;-72
2023/03/01 00:55:24;;;;;;;;;;;;;;;14.78;58.75;103389.38;2065722;28;19922;-72
2023/03/01 00:56:27;;;;;;;;;;;;;;;14.77;58.67;103390.50;2070697;28;19926;-72
2023/03/01 00:57:30;;;;;;;;;;;;;;;14.78;58.70;103394.81;2062978;28;19968;-71
2023/03/01 00:58:31;;;;;;;;;;;;;;;14.77;58.71;103391.31;2075206;28;19920;-72
2023/03/01 00:59:34;;;;;;;;;;;;;;;14.76;58.61;103397.06;2065993;28;19926;-72
2023/03/01 01:00:36;;;;;;;;;;;;;;;14.77;58.48;103398.66;2064245;28;19930;-72
2023/03/01 01:01:39;;;;;;;;;;;;;;;14.77;58.62;103390.50;2054011;28;19934;-71
2023/03/01 01:02:41;;;;;;;;;;;;;;;14.77;58.44;103393.22;2066212;28;19986;-72
2023/03/01 01:03:45;;;;;;;;;;;;;;;14.76;58.52;103397.84;2069263;28;20392;-71
2023/03/01 01:04:47;;;;;;;;;;;;;;;14.77;58.35;103387.78;2065348;28;20013;-71
2023/03/01 01:05:50;;;;;;;;;;;;;;;14.76;58.66;103386.97;2069142;28;20000;-72
2023/03/01 01:06:51;;;;;;;;;;;;;;;14.76;58.46;103391.63;2066981;28;19925;-72
2023/03/01 01:07:54;;;;;;;;;;;;;;;14.76;58.40;103391.63;2075734;28;19936;-72
2023/03/01 01:08:57;;;;;;;;;;;;;;;14.76;58.62;103388.91;2073303;28;19944;-72
2023/03/01 01:09:59;;;;;;;;;;;;;;;14.76;58.53;103397.06;2066223;28;19968;-72
2023/03/01 01:11:01;;;;;;;;;;;;;;;14.75;58.50;103389.97;2058840;28;19965;-72
2023/03/01 01:12:04;;;;;;;;;;;;;;;14.75;58.65;103389.97;2063998;28;19941;-72
2023/03/01 01:13:06;;;;;;;;;;;;;;;14.75;58.57;103393.53;2065357;28;19937;-73
2023/03/01 01:14:08;;;;;;;;;;;;;;;14.74;58.58;103385.66;2072898;28;19949;-72
2023/03/01 01:15:12;;;;;;;;;;;;;;;14.75;58.44;103384.53;2072976;28;20016;-72
2023/03/01 01:16:15;;;;;;;;;;;;;;;14.74;58.55;103386.47;2072981;28;19926;-73
2023/03/01 01:17:17;;;;;;;;;;;;;;;14.75;58.42;103389.97;2073131;28;20028;-72
2023/03/01 01:18:20;;;;;;;;;;;;;;;14.74;58.35;103389.19;2071767;28;20004;-72
2023/03/01 01:19:23;;;;;;;;;;;;;;;14.74;58.63;103382.94;2064369;28;20032;-72
2023/03/01 01:20:26;;;;;;;;;;;;;;;14.74;58.45;103391.09;2058944;28;20404;-72
2023/03/01 01:21:28;;;;;;;;;;;;;;;14.74;58.19;103385.66;2065058;28;20384;-72
2023/03/01 01:22:31;;;;;;;;;;;;;;;14.74;58.35;103382.94;2057838;28;20398;-72
2023/03/01 01:23:33;;;;;;;;;;;;;;;14.74;58.22;103388.38;2061115;28;20386;-72
2023/03/01 01:24:37;;;;;;;;;;;;;;;14.73;58.44;103386.78;2068991;28;19925;-72
2023/03/01 01:25:38;;;;;;;;;;;;;;;14.73;58.21;103375.91;2066076;28;19930;-72
2023/03/01 01:26:41;;;;;;;;;;;;;;;14.73;58.21;103381.34;2065901;28;19937;-73
2023/03/01 01:27:43;;;;;;;;;;;;;;;14.73;58.21;103378.63;2072229;28;20016;-72
2023/03/01 01:28:46;;;;;;;;;;;;;;;14.73;58.33;103378.63;2072031;28;19930;-72
2023/03/01 01:29:48;;;;;;;;;;;;;;;14.73;58.17;103375.91;2064035;28;19933;-72
2023/03/01 01:30:50;;;;;;;;;;;;;;;14.72;58.39;103375.09;2057340;28;20005;-72
2023/03/01 01:31:53;;;;;;;;;;;;;;;14.73;58.14;103370.47;2070461;28;19963;-73
2023/03/01 01:32:57;;;;;;;;;;;;;;;14.71;58.48;103368.03;2069972;28;19930;-72
2023/03/01 01:34:00;;;;;;;;;;;;;;;14.72;58.17;103371.56;2064487;28;19926;-72
2023/03/01 01:35:04;;;;;;;;;;;;;;;14.71;58.18;103362.59;2064521;28;19939;-73
2023/03/01 01:36:07;;;;;;;;;;;;;;;14.71;58.29;103368.03;2053832;28;20330;-72
2023/03/01 01:37:09;;;;;;;;;;;;;;;14.71;58.39;103367.25;2061717;28;19980;-72
2023/03/01 01:38:11;;;;;;;;;;;;;;;14.71;58.19;103367.25;2071004;28;19933;-73
2023/03/01 01:39:14;;;;;;;;;;;;;;;14.71;58.06;103367.25;2065526;28;19929;-73
2023/03/01 01:40:16;;;;;;;;;;;;;;;14.71;58.10;103361.81;2063456;28;19956;-73
2023/03/01 01:41:19;;;;;;;;;;;;;;;14.71;58.38;103367.25;2055730;28;19930;-73
2023/03/01 01:42:21;;;;;;;;;;;;;;;14.70;58.04;103363.72;2056144;28;20343;-72
2023/03/01 01:43:25;;;;;;;;;;;;;;;14.70;58.06;103361.00;2055185;28;20024;-73
2023/03/01 01:44:27;;;;;;;;;;;;;;;14.71;58.10;103361.81;2056352;28;20205;-73
2023/03/01 01:45:32;;;;;;;;;;;;;;;14.70;58.22;103357.47;2056324;28;19926;-73
2023/03/01 01:46:36;;;;;;;;;;;;;;;14.69;58.11;103358.59;2060394;28;19988;-72
2023/03/01 01:47:39;;;;;;;;;;;;;;;14.70;58.05;103360.19;2068975;28;19969;-73
2023/03/01 01:48:43;;;;;;;;;;;;;;;14.69;57.90;103353.97;2071729;28;19941;-73
2023/03/01 01:49:48;;;;;;;;;;;;;;;14.70;58.32;103357.47;2067537;28;20009;-72
2023/03/01 01:50:55;;;;;;;;;;;;;;;14.69;58.08;103358.59;2066085;28;19933;-73
2023/03/01 01:52:01;;;;;;;;;;;;;;;14.69;58.03;103350.44;2070056;28;19975;-73
2023/03/01 01:53:05;;;;;;;;;;;;;;;14.68;58.19;103346.13;2072021;28;19936;-72
2023/03/01 01:54:10;;;;;;;;;;;;;;;14.68;57.99;103346.13;2064360;28;20482;-72
2023/03/01 01:55:16;;;;;;;;;;;;;;;14.68;58.15;103348.84;2065591;28;19936;-72
2023/03/01 01:56:19;;;;;;;;;;;;;;;14.68;58.03;103336.00;2058714;28;19934;-73
2023/03/01 01:57:23;;;;;;;;;;;;;;;14.68;58.07;103336.00;2057663;28;19930;-73
2023/03/01 01:58:29;;;;;;;;;;;;;;;14.69;58.04;103336.84;2060120;28;20301;-73
2023/03/01 01:59:31;;;;;;;;;;;;;;;14.68;58.08;103340.66;2063492;28;19937;-72
2023/03/01 02:00:34;;;;;;;;;;;;;;;14.68;57.91;103335.22;2063827;28;20036;-73
2023/03/01 02:01:36;;;;;;;;;;;;;;;14.68;58.01;103332.53;2056402;28;19930;-73
2023/03/01 02:02:39;;;;;;;;;;;;;;;14.67;57.89;103337.13;2066338;28;20016;-72
2023/03/01 02:03:43;;;;;;;;;;;;;;;14.68;58.20;103337.97;2072441;28;19934;-73
2023/03/01 02:04:47;;;;;;;;;;;;;;;14.67;57.65;103328.16;2072489;28;20118;-73
2023/03/01 02:05:53;;;;;;;;;;;;;;;14.67;58.02;103333.59;2072941;28;19929;-72
2023/03/01 02:07:01;;;;;;;;;;;;;;;14.67;57.88;103328.16;2071605;28;19987;-73
2023/03/01 02:08:03;;;;;;;;;;;;;;;14.67;57.95;103336.31;2063138;28;19937;-73
2023/03/01 02:09:10;;;;;;;;;;;;;;;14.66;57.89;103330.09;2057647;28;20414;-72
2023/03/01 02:10:12;;;;;;;;;;;;;;;14.66;58.11;103334.72;2064263;28;19930;-73
2023/03/01 02:11:15;;;;;;;;;;;;;;;14.66;57.84;103332.00;2060871;28;19988;-72
2023/03/01 02:12:18;;;;;;;;;;;;;;;14.65;57.74;103325.75;2058422;28;19972;-71
2023/03/01 02:13:21;;;;;;;;;;;;;;;14.65;57.79;103331.19;2055711;28;19926;-72
2023/03/01 02:14:22;;;;;;;;;;;;;;;14.65;57.99;103336.63;2066449;28;20347;-72
2023/03/01 02:15:26;;;;;;;;;;;;;;;14.65;57.60;103327.69;2057929;28;20405;-72
2023/03/01 02:16:28;;;;;;;;;;;;;;;14.65;57.76;103330.41;2053659;28;20397;-72
2023/03/01 02:17:32;;;;;;;;;;;;;;;14.65;57.95;103327.69;2068497;28;19929;-72
2023/03/01 02:18:35;;;;;;;;;;;;;;;14.64;57.81;103329.59;2067349;28;19948;-73
2023/03/01 02:19:43;;;;;;;;;;;;;;;14.64;57.53;103329.59;2067137;28;19987;-72
2023/03/01 02:20:53;;;;;;;;;;;;;;;14.64;57.82;103328.78;2062198;28;20199;-72
2023/03/01 02:22:02;;;;;;;;;;;;;;;14.64;57.75;103323.34;2057065;28;19982;-73
2023/03/01 02:23:05;;;;;;;;;;;;;;;14.64;57.72;103326.06;2054587;28;20261;-72
2023/03/01 02:24:14;;;;;;;;;;;;;;;14.64;57.53;103326.06;2063538;28;20000;-73
2023/03/01 02:25:30;;;;;;;;;;;;;;;14.63;57.83;103319.03;2072711;28;20558;-72
2023/03/01 02:26:36;;;;;;;;;;;;;;;14.64;57.53;103323.34;2071918;28;19929;-72
2023/03/01 02:27:41;;;;;;;;;;;;;;;14.62;57.46;103320.13;2062577;28;19934;-73
2023/03/01 02:28:45;;;;;;;;;;;;;;;14.63;57.60;103321.75;2057919;28;19996;-72
2023/03/01 02:29:47;;;;;;;;;;;;;;;14.62;57.70;103320.13;2068247;28;19929;-72
2023/03/01 02:32:13;;;;;;;;;;;;;;;14.61;57.57;103315.81;2071674;28;20335;-72
2023/03/01 02:33:15;;;;;;;;;;;;;;;14.61;57.57;103313.91;2070589;28;20193;-72
2023/03/01 02:34:19;;;;;;;;;;;;;;;14.53;57.20;103302.94;2070595;28;20262;-71
2023/03/01 02:35:21;;;;;;;;;;;;;;;14.61;57.68;103308.47;2063337;28;19930;-73
2023/03/01 02:36:25;;;;;;;;;;;;;;;14.60;57.59;103309.56;2058368;28;19930;-72
2023/03/01 02:37:27;;;;;;;;;;;;;;;14.60;57.46;103311.50;2068277;28;19930;-72
2023/03/01 02:38:30;;;;;;;;;;;;;;;14.61;57.94;103313.09;2069846;28;20677;-72
2023/03/01 02:39:37;;;;;;;;;;;;;;;14.60;57.44;103303.34;2072534;28;19937;-72
2023/03/01 02:40:41;;;;;;;;;;;;;;;14.60;57.45;103306.06;2056015;28;19957;-72
2023/03/01 02:41:46;;;;;;;;;;;;;;;14.59;57.59;103304.44;2060674;28;19930;-72
2023/03/01 02:42:52;;;;;;;;;;;;;;;14.60;57.78;103311.50;2062008;28;20434;-72
2023/03/01 02:43:55;;;;;;;;;;;;;;;14.59;57.57;103307.97;2062886;28;19929;-73
2023/03/01 02:44:58;;;;;;;;;;;;;;;14.59;57.44;103304.44;2063364;28;19937;-72
2023/03/01 02:46:05;;;;;;;;;;;;;;;14.60;57.53;103306.06;2063995;28;19937;-72
2023/03/01 02:47:08;;;;;;;;;;;;;;;14.59;57.61;103299.00;2071943;28;19929;-72
2023/03/01 02:48:09;;;;;;;;;;;;;;;14.58;57.36;103292.78;2063881;28;19933;-72
2023/03/01 02:49:24;;;;;;;;;;;;;;;14.59;57.63;103293.56;2061472;28;19980;-72
2023/03/01 02:50:42;;;;;;;;;;;;;;;14.58;57.53;103291.97;2059667;28;19926;-72
2023/03/01 02:51:49;;;;;;;;;;;;;;;14.58;57.16;103292.78;2056693;28;19965;-72
2023/03/01 02:52:55;;;;;;;;;;;;;;;14.58;57.76;103290.06;2063954;28;19965;-72
2023/03/01 02:54:06;;;;;;;;;;;;;;;14.58;57.37;103286.53;2062969;28;19934;-72
2023/03/01 02:55:11;;;;;;;;;;;;;;;14.58;57.40;103286.53;2057300;28;19934;-73
2023/03/01 02:56:13;;;;;;;;;;;;;;;14.58;57.37;103287.34;2060942;28;20396;-72
2023/03/01 02:57:16;;;;;;;;;;;;;;;14.58;57.58;103283.81;2060451;28;20037;-72
2023/03/01 02:58:19;;;;;;;;;;;;;;;14.58;57.27;103281.91;2057635;28;19930;-72
2023/03/01 02:59:25;;;;;;;;;;;;;;;14.57;57.23;103283.00;2063538;28;19948;-72
2023/03/01 03:00:30;;;;;;;;;;;;;;;14.58;57.54;103281.09;2070145;28;19969;-72
2023/03/01 03:01:37;;;;;;;;;;;;;;;14.57;57.10;103280.28;2070777;28;19979;-72
2023/03/01 03:02:40;;;;;;;;;;;;;;;14.58;57.39;103286.53;2055120;28;19934;-72
2023/03/01 03:03:49;;;;;;;;;;;;;;;14.57;57.29;103279.50;2057325;28;20008;-72
2023/03/01 03:04:51;;;;;;;;;;;;;;;14.57;57.32;103280.28;2060258;28;19934;-72
2023/03/01 03:05:54;;;;;;;;;;;;;;;14.56;57.55;103278.69;2060509;28;19934;-73
2023/03/01 03:06:56;;;;;;;;;;;;;;;14.57;57.36;103284.94;2064038;28;20012;-73
2023/03/01 03:07:59;;;;;;;;;;;;;;;14.57;57.27;103285.72;2067619;28;19929;-73
2023/03/01 03:09:03;;;;;;;;;;;;;;;14.56;57.37;103283.28;2060706;28;20053;-72
2023/03/01 03:10:07;;;;;;;;;;;;;;;14.56;57.61;103294.97;2048972;28;19978;-72
2023/03/01 03:11:11;;;;;;;;;;;;;;;14.56;57.55;103289.56;2056554;28;19930;-72
2023/03/01 03:12:14;;;;;;;;;;;;;;;14.56;57.49;103294.16;2064074;28;20365;-73
2023/03/01 03:13:17;;;;;;;;;;;;;;;14.56;57.44;103294.97;2070350;28;20063;-72
2023/03/01 03:14:19;;;;;;;;;;;;;;;14.56;57.45;103288.75;2066312;28;20017;-72
2023/03/01 03:15:24;;;;;;;;;;;;;;;14.56;57.31;103284.13;2048997;28;20367;-72
2023/03/01 03:16:29;;;;;;;;;;;;;;;14.56;57.32;103288.75;2068717;28;20015;-72
2023/03/01 03:17:31;;;;;;;;;;;;;;;14.56;57.34;103277.84;2069841;28;19975;-72
2023/03/01 03:18:34;;;;;;;;;;;;;;;14.56;57.07;103280.59;2067101;28;19940;-72
2023/03/01 03:19:38;;;;;;;;;;;;;;;14.56;57.06;103277.84;2068626;28;19929;-73
2023/03/01 03:20:41;;;;;;;;;;;;;;;14.56;57.19;103275.13;2069385;28;19936;-73
2023/03/01 03:21:43;;;;;;;;;;;;;;;14.55;57.19;103277.06;2064632;28;19965;-72
2023/03/01 03:22:46;;;;;;;;;;;;;;;14.55;56.85;103270.81;2064274;28;19930;-73
2023/03/01 03:23:49;;;;;;;;;;;;;;;14.55;57.11;103273.53;2061724;28;20076;-72
2023/03/01 03:24:51;;;;;;;;;;;;;;;14.56;57.08;103283.28;2069671;28;19936;-73
2023/03/01 03:25:53;;;;;;;;;;;;;;;14.55;57.38;103276.25;2063897;28;19934;-73
2023/03/01 03:26:58;;;;;;;;;;;;;;;14.55;57.19;103270.81;2050024;28;20059;-73
2023/03/01 03:28:01;;;;;;;;;;;;;;;14.55;57.29;103271.66;2062188;28;19999;-73
2023/03/01 03:29:03;;;;;;;;;;;;;;;14.54;57.40;103270.00;2057093;28;19941;-72
2023/03/01 03:30:08;;;;;;;;;;;;;;;14.55;57.08;103268.13;2062889;28;20024;-73
2023/03/01 03:31:11;;;;;;;;;;;;;;;14.54;57.41;103275.44;2061367;28;19930;-73
2023/03/01 03:32:14;;;;;;;;;;;;;;;14.55;57.08;103273.53;2069931;28;19929;-72
2023/03/01 03:33:16;;;;;;;;;;;;;;;14.55;57.07;103270.81;2071219;28;19929;-73
2023/03/01 03:34:18;;;;;;;;;;;;;;;14.54;57.11;103270.00;2070914;28;19929;-72
2023/03/01 03:35:21;;;;;;;;;;;;;;;14.55;57.29;103281.69;2069592;28;19926;-72
2023/03/01 03:36:24;;;;;;;;;;;;;;;14.54;57.11;103278.16;2071476;28;19930;-73
2023/03/01 03:38:48;;;;;;;;;;;;;;;14.54;57.00;103280.09;2068317;28;19987;-73
2023/03/01 03:39:54;;;;;;;;;;;;;;;14.54;56.92;103277.38;2066469;28;19933;-73
2023/03/01 03:41:02;;;;;;;;;;;;;;;14.53;57.19;103276.56;2067835;28;19929;-73
2023/03/01 03:42:04;;;;;;;;;;;;;;;14.54;57.04;103274.66;2067025;28;19936;-73
2023/03/01 03:43:08;;;;;;;;;;;;;;;14.54;56.87;103282.81;2062301;28;20023;-73
2023/03/01 03:44:10;;;;;;;;;;;;;;;14.53;56.90;103278.47;2054439;28;20400;-73
2023/03/01 03:45:12;;;;;;;;;;;;;;;14.53;57.24;103281.19;2062690;28;19930;-73
2023/03/01 03:46:16;;;;;;;;;;;;;;;14.54;57.09;103277.38;2069062;28;19933;-73
2023/03/01 03:47:19;;;;;;;;;;;;;;;14.53;57.28;103279.28;2068806;28;19930;-72
2023/03/01 03:48:21;;;;;;;;;;;;;;;14.53;57.26;103278.47;2066476;28;20005;-73
2023/03/01 03:49:24;;;;;;;;;;;;;;;14.53;57.00;103273.03;2063916;28;19937;-72
2023/03/01 03:50:26;;;;;;;;;;;;;;;14.52;57.14;103272.25;2063524;28;19952;-73
2023/03/01 03:51:28;;;;;;;;;;;;;;;14.53;57.00;103273.03;2066329;28;19930;-73
2023/03/01 03:52:30;;;;;;;;;;;;;;;14.52;57.04;103282.31;2061135;28;19948;-73
2023/03/01 03:53:33;;;;;;;;;;;;;;;14.52;57.06;103279.59;2062767;28;19973;-73
2023/03/01 03:54:35;;;;;;;;;;;;;;;14.52;56.87;103282.31;2052974;28;19980;-72
2023/03/01 03:55:38;;;;;;;;;;;;;;;14.52;57.01;103282.31;2062500;28;20632;-72
2023/03/01 03:56:40;;;;;;;;;;;;;;;14.52;57.07;103290.47;2063288;28;19926;-73
2023/03/01 03:57:43;;;;;;;;;;;;;;;14.52;56.93;103288.56;2072328;28;20347;-72
2023/03/01 03:58:45;;;;;;;;;;;;;;;14.51;56.73;103286.13;2070774;28;20004;-72
2023/03/01 03:59:48;;;;;;;;;;;;;;;14.51;56.97;103283.41;2061759;28;20242;-72
2023/03/01 04:00:51;;;;;;;;;;;;;;;14.51;56.95;103283.41;2063480;28;20356;-72
2023/03/01 04:01:55;;;;;;;;;;;;;;;14.51;56.88;103291.56;2060038;28;20425;-72
2023/03/01 04:02:57;;;;;;;;;;;;;;;14.51;57.21;103283.41;2062397;28;20034;-72
2023/03/01 04:04:03;;;;;;;;;;;;;;;14.51;56.79;103297.00;2059681;28;20604;-72
2023/03/01 04:05:06;;;;;;;;;;;;;;;14.50;56.70;103288.06;2060491;28;19992;-72
2023/03/01 04:06:08;;;;;;;;;;;;;;;14.51;56.88;103280.69;2071718;28;20290;-72
2023/03/01 04:07:10;;;;;;;;;;;;;;;14.50;57.09;103279.91;2065341;28;20416;-72
2023/03/01 04:08:13;;;;;;;;;;;;;;;14.51;57.04;103280.69;2062810;28;20352;-72
2023/03/01 04:09:14;;;;;;;;;;;;;;;14.50;56.51;103279.91;2069480;28;19979;-72
2023/03/01 04:10:18;;;;;;;;;;;;;;;14.50;57.00;103279.09;2064909;28;20002;-72
2023/03/01 04:11:26;;;;;;;;;;;;;;;14.50;56.71;103270.94;2063791;28;20034;-72
2023/03/01 04:12:28;;;;;;;;;;;;;;;14.50;56.82;103268.22;2063924;28;19929;-72
2023/03/01 04:13:30;;;;;;;;;;;;;;;14.49;56.94;103261.97;2055141;28;20311;-72
2023/03/01 04:14:33;;;;;;;;;;;;;;;14.50;56.74;103265.50;2055703;28;20568;-72
2023/03/01 04:15:35;;;;;;;;;;;;;;;14.49;56.98;103259.25;2063221;28;19960;-72
2023/03/01 04:16:38;;;;;;;;;;;;;;;14.50;56.87;103263.59;2063173;28;20032;-72
2023/03/01 04:17:41;;;;;;;;;;;;;;;14.49;56.93;103261.19;2060905;28;20437;-72
2023/03/01 04:18:44;;;;;;;;;;;;;;;14.50;56.79;103262.78;2066375;28;19929;-72
2023/03/01 04:19:48;;;;;;;;;;;;;;;14.48;56.88;103260.38;2064086;28;20405;-72
2023/03/01 04:20:55;;;;;;;;;;;;;;;14.48;56.46;103260.38;2058860;28;19937;-72
2023/03/01 04:21:57;;;;;;;;;;;;;;;14.48;56.61;103260.38;2061538;28;19930;-72
2023/03/01 04:23:10;;;;;;;;;;;;;;;14.47;56.80;103257.97;2065069;28;19992;-72
2023/03/01 04:24:12;;;;;;;;;;;;;;;14.48;56.55;103260.38;2061727;28;19933;-72
2023/03/01 04:25:14;;;;;;;;;;;;;;;14.48;56.83;103259.56;2059981;28;19980;-72
2023/03/01 04:26:17;;;;;;;;;;;;;;;14.48;56.76;103273.16;2071633;28;19929;-72
2023/03/01 04:27:18;;;;;;;;;;;;;;;14.48;56.84;103273.16;2064493;28;19930;-72
2023/03/01 04:28:23;;;;;;;;;;;;;;;14.49;56.70;103266.63;2060246;28;20349;-72
2023/03/01 04:29:26;;;;;;;;;;;;;;;14.47;56.83;103268.84;2063396;28;19933;-72
2023/03/01 04:30:29;;;;;;;;;;;;;;;14.47;56.57;103268.84;2060893;28;19937;-72
2023/03/01 04:31:31;;;;;;;;;;;;;;;14.47;56.85;103263.41;2061442;28;19930;-71
2023/03/01 04:32:33;;;;;;;;;;;;;;;14.46;56.60;103262.59;2071734;28;19937;-72
2023/03/01 04:33:37;;;;;;;;;;;;;;;14.47;56.43;103266.13;2066511;28;19932;-72
2023/03/01 04:34:39;;;;;;;;;;;;;;;14.46;56.93;103273.47;2066017;28;19983;-72
2023/03/01 04:35:41;;;;;;;;;;;;;;;14.46;56.48;103268.03;2070902;28;19936;-72
2023/03/01 04:36:43;;;;;;;;;;;;;;;14.46;56.44;103275.41;2059406;28;19937;-72
2023/03/01 04:37:46;;;;;;;;;;;;;;;14.46;56.49;103265.31;2054790;28;19969;-71
2023/03/01 04:38:48;;;;;;;;;;;;;;;14.45;56.56;103274.59;2053590;28;20078;-71
2023/03/01 04:39:51;;;;;;;;;;;;;;;14.46;56.44;103267.25;2061949;28;20385;-71
2023/03/01 04:40:52;;;;;;;;;;;;;;;14.45;56.48;103271.06;2071868;28;20456;-72
2023/03/01 04:41:55;;;;;;;;;;;;;;;14.45;56.73;103262.91;2059319;28;19926;-72
2023/03/01 04:42:57;;;;;;;;;;;;;;;14.45;56.67;103268.34;2060174;28;20406;-72
2023/03/01 04:44:00;;;;;;;;;;;;;;;14.45;56.57;103271.06;2072531;28;19926;-72
2023/03/01 04:45:02;;;;;;;;;;;;;;;14.45;56.46;103261.00;2065816;28;19934;-72
2023/03/01 04:46:07;;;;;;;;;;;;;;;14.45;56.75;103261.00;2069052;28;19926;-72
2023/03/01 04:47:10;;;;;;;;;;;;;;;14.45;56.40;103265.63;2069338;28;20425;-72
2023/03/01 04:48:12;;;;;;;;;;;;;;;14.45;56.16;103263.72;2067579;28;19933;-72
2023/03/01 04:49:15;;;;;;;;;;;;;;;14.45;56.44;103265.63;2066465;28;19946;-72
2023/03/01 04:50:20;;;;;;;;;;;;;;;14.44;56.47;103259.41;2064259;28;20004;-72
2023/03/01 04:51:21;;;;;;;;;;;;;;;14.45;56.82;103260.19;2065892;28;19930;-72
2023/03/01 04:52:24;;;;;;;;;;;;;;;14.44;56.40;103264.84;2071809;28;19929;-72
2023/03/01 04:53:26;;;;;;;;;;;;;;;14.43;56.38;103265.16;2072365;28;19925;-71
2023/03/01 04:54:30;;;;;;;;;;;;;;;14.44;56.30;103264.03;2072321;28;19952;-72
2023/03/01 04:55:31;;;;;;;;;;;;;;;14.44;56.23;103258.59;2072086;28;20037;-72
2023/03/01 04:56:34;;;;;;;;;;;;;;;14.44;56.78;103258.59;2057675;28;19996;-72
2023/03/01 04:57:36;;;;;;;;;;;;;;;14.43;56.39;103263.22;2065603;28;20433;-72
2023/03/01 04:58:38;;;;;;;;;;;;;;;14.43;56.67;103257.00;2063823;28;19999;-72
2023/03/01 04:59:40;;;;;;;;;;;;;;;14.43;56.63;103254.28;2058080;28;20310;-72
2023/03/01 05:00:43;;;;;;;;;;;;;;;14.43;56.43;103257.00;2064754;28;19933;-72
2023/03/01 05:01:44;;;;;;;;;;;;;;;14.43;56.25;103257.00;2064329;28;20409;-72
2023/03/01 05:02:52;;;;;;;;;;;;;;;14.42;56.37;103255.38;2065676;28;19980;-71
2023/03/01 05:03:54;;;;;;;;;;;;;;;14.43;56.51;103251.56;2071436;28;19965;-71
2023/03/01 05:05:00;;;;;;;;;;;;;;;14.43;56.11;103249.63;2066842;28;19934;-71
2023/03/01 05:06:02;;;;;;;;;;;;;;;14.42;56.27;103249.94;2064090;28;19980;-72
2023/03/01 05:07:05;;;;;;;;;;;;;;;14.42;56.77;103244.50;2055205;28;20763;-72
2023/03/01 05:08:08;;;;;;;;;;;;;;;14.42;56.51;103250.75;2065092;28;20349;-72
2023/03/01 05:09:11;;;;;;;;;;;;;;;14.42;56.53;103249.94;2063007;28;20375;-72
2023/03/01 05:10:13;;;;;;;;;;;;;;;14.43;56.48;103243.41;2057711;28;19937;-72
2023/03/01 05:11:16;;;;;;;;;;;;;;;14.42;56.60;103247.22;2064292;28;20068;-72
2023/03/01 05:12:17;;;;;;;;;;;;;;;14.41;56.28;103243.69;2066512;28;20502;-72
2023/03/01 05:13:21;;;;;;;;;;;;;;;14.41;56.29;103246.41;2072540;28;19925;-72
2023/03/01 05:14:23;;;;;;;;;;;;;;;14.41;56.21;103240.19;2061393;28;20020;-72
2023/03/01 05:15:26;;;;;;;;;;;;;;;14.42;56.58;103244.50;2061698;28;19926;-72
2023/03/01 05:16:30;;;;;;;;;;;;;;;14.42;56.31;103245.31;2059283;28;20415;-72
2023/03/01 05:17:36;;;;;;;;;;;;;;;14.41;56.42;103238.25;2062843;28;19926;-72
2023/03/01 05:18:38;;;;;;;;;;;;;;;14.40;56.08;103239.38;2071647;28;20028;-72
2023/03/01 05:19:42;;;;;;;;;;;;;;;14.41;56.33;103238.25;2064488;28;19936;-72
2023/03/01 05:20:47;;;;;;;;;;;;;;;14.41;56.27;103229.31;2064602;28;20016;-72
2023/03/01 05:22:03;;;;;;;;;;;;;;;14.40;56.23;103235.84;2071003;28;19980;-72
2023/03/01 05:23:06;;;;;;;;;;;;;;;14.40;56.22;103231.22;2069146;28;19934;-72
2023/03/01 05:24:11;;;;;;;;;;;;;;;14.41;56.40;103229.31;2040604;28;20337;-71
2023/03/01 05:25:14;;;;;;;;;;;;;;;14.40;56.38;103230.41;2065525;28;20863;-71
2023/03/01 05:26:17;;;;;;;;;;;;;;;14.40;56.35;103230.41;2063287;28;19973;-71
2023/03/01 05:27:30;;;;;;;;;;;;;;;14.39;56.03;103229.63;2071926;28;19952;-71
2023/03/01 05:28:32;;;;;;;;;;;;;;;14.39;56.23;103228.81;2069154;28;20007;-71